Airfield :







YOU CAN JOIN US ON...

 
LOGIN :

Register | Disclaimer

   EN    FR    IT 

 









Legend :    VFR   Marginal VFR   IFR   Intensive IFR   Very Intensive IFR
Visi :
Ceiling :
>= 8 km
>= 3000ft
5 to 8 km
1000 to 3000 ft
1500m to 5 km
500 to 1000 ft
800 to 1500m
200 to 500 ft
< 800m
< 200 ft
Symbols :   Thunderstorms  Fog  Heavy snow  Heavy precipitations  Wind > 20 kt







- Airport Elevation : 1270 ft
- IATA code : YMT


CYMT - Chapais

CURRENT METAR :
  • 200823Z AUTO 04007KT 6SM RA BR BKN005 BKN010 OVC017 06/05 A2966 RMK SLP056

EXPIRED METARs :
  • 200800Z AUTO 05008KT 3SM RA BR BKN005 BKN014 OVC026 05/05 A2967 RMK SLP061
  • 200746Z AUTO 05008KT 5SM -RA BR BKN005 BKN025 OVC031 05/05 A2968 RMK SLP064
  • 200700Z AUTO 06008KT 9SM -RA BKN005 OVC034 05/04 A2968 RMK SLP066
  • 200600Z AUTO 07008KT 6SM -RA BR BKN005 OVC035 04/04 A2973 RMK PRESFR PCPN 2.2MM PAST HR SLP082
  • 200549Z AUTO 06007KT 5SM -RA BR BKN005 BKN015 OVC023 04/04 A2974 RMK PRESFR SLP087
  • 200541Z AUTO 05007KT 6SM RA BR BKN005 BKN015 OVC022 04/04 A2975 RMK PRESFR SLP090
  • 200530Z AUTO 05005KT 5SM RA BR BKN005 OVC015 04/04 A2976 RMK SLP094

Expired Forecast.
CZUL FIR / North America



MET'MAP, your aeronautical weather chart ! - Copyright ORBIFLY December 2007 - Disclaimer

ORBIFLY MET'MAP TEAM :

Programming & Development : Alexandra Zaïnal
Concept & Development : Baudouin d'Aumeries
Co-Development & Prog : Marc-Olivier Méhu
Technical & hardware support : Manuel Goepfert

Contact : metmap@orbifly.com




SOURCES & CREDITS :

   NOAA